Time,TemperatureF,DewpointF,PressureIn,WindDirection,WindDirectionDegrees,WindSpeedMPH,WindSpeedGustMPH,Humidity,HourlyPrecipIn,Conditions,Clouds,dailyrainin,SolarRadiationWatts/m^2,SoftwareType,DateUTC
2013-02-28 00:12:00,13.0,1.0,30.39,South,178,0.0,2.0,59,0.00,,,0.00,0,weatherlink.com 1.10,2013-02-28 07:12:00,
2013-02-28 00:27:00,13.2,1.0,30.39,South,178,0.0,0.0,58,0.00,,,0.00,0,weatherlink.com 1.10,2013-02-28 07:27:00,
2013-02-28 00:42:00,12.9,1.0,30.39,NW,309,0.0,2.0,59,0.00,,,0.00,0,weatherlink.com 1.10,2013-02-28 07:42:00,
2013-02-28 00:57:00,13.1,1.0,30.39,NW,308,1.0,2.0,59,0.00,,,0.00,0,weatherlink.com 1.10,2013-02-28 07:57:00,
2013-02-28 01:12:00,13.0,0.0,30.39,NW,308,0.0,0.0,57,0.00,,,0.00,0,weatherlink.com 1.10,2013-02-28 08:12:00,
2013-02-28 01:28:00,11.1,0.0,30.39,NW,308,1.0,1.0,61,0.00,,,0.00,0,weatherlink.com 1.10,2013-02-28 08:28:00,
2013-02-28 01:43:00,11.0,0.0,30.39,NW,308,0.0,1.0,62,0.00,,,0.00,0,weatherlink.com 1.10,2013-02-28 08:43:00,
2013-02-28 01:58:00,11.5,0.0,30.38,NW,307,0.0,2.0,61,0.00,,,0.00,0,weatherlink.com 1.10,2013-02-28 08:58:00,
2013-02-28 02:13:00,11.1,-1.0,30.38,NW,307,0.0,2.0,59,0.00,,,0.00,0,weatherlink.com 1.10,2013-02-28 09:13:00,
2013-02-28 02:28:00,11.0,-1.0,30.38,NW,307,0.0,1.0,60,0.00,,,0.00,0,weatherlink.com 1.10,2013-02-28 09:28:00,
2013-02-28 02:43:00,10.8,-1.0,30.38,NW,307,0.0,0.0,59,0.00,,,0.00,0,weatherlink.com 1.10,2013-02-28 09:43:00,
2013-02-28 02:58:00,10.1,-1.0,30.38,NW,307,0.0,0.0,60,0.00,,,0.00,0,weatherlink.com 1.10,2013-02-28 09:58:00,
2013-02-28 03:13:00,8.3,-2.0,30.38,NW,307,0.0,0.0,64,0.00,,,0.00,0,weatherlink.com 1.10,2013-02-28 10:13:00,
2013-02-28 03:28:00,8.3,-2.0,30.38,NW,307,0.0,1.0,64,0.00,,,0.00,0,weatherlink.com 1.10,2013-02-28 10:28:00,
2013-02-28 03:43:00,8.4,-2.0,30.38,NW,307,0.0,1.0,64,0.00,,,0.00,0,weatherlink.com 1.10,2013-02-28 10:43:00,
2013-02-28 03:58:00,8.7,-2.0,30.39,NW,307,0.0,2.0,63,0.00,,,0.00,0,weatherlink.com 1.10,2013-02-28 10:58:00,
2013-02-28 04:13:00,9.2,-2.0,30.38,NW,307,0.0,0.0,62,0.00,,,0.00,0,weatherlink.com 1.10,2013-02-28 11:13:00,
2013-02-28 04:28:00,9.1,-2.0,30.39,NW,307,0.0,0.0,62,0.00,,,0.00,0,weatherlink.com 1.10,2013-02-28 11:28:00,
2013-02-28 04:43:00,8.9,-2.0,30.39,NW,307,0.0,0.0,61,0.00,,,0.00,0,weatherlink.com 1.10,2013-02-28 11:43:00,
2013-02-28 04:58:00,8.1,-2.0,30.39,NW,307,1.0,2.0,63,0.00,,,0.00,0,weatherlink.com 1.10,2013-02-28 11:58:00,
2013-02-28 05:13:00,8.9,-2.0,30.40,NW,307,0.0,0.0,61,0.00,,,0.00,0,weatherlink.com 1.10,2013-02-28 12:13:00,
2013-02-28 05:29:00,9.5,-2.0,30.41,NW,308,0.0,2.0,59,0.00,,,0.00,0,weatherlink.com 1.10,2013-02-28 12:29:00,
2013-02-28 05:44:00,9.0,-3.0,30.41,NNW,339,0.0,2.0,58,0.00,,,0.00,0,weatherlink.com 1.10,2013-02-28 12:44:00,
2013-02-28 05:59:00,8.2,-4.0,30.41,NNW,341,0.0,1.0,59,0.00,,,0.00,0,weatherlink.com 1.10,2013-02-28 12:59:00,
2013-02-28 06:14:00,7.6,-4.0,30.41,NE,56,0.0,1.0,60,0.00,,,0.00,0,weatherlink.com 1.10,2013-02-28 13:14:00,
2013-02-28 06:29:00,6.6,-4.0,30.40,ENE,59,0.0,1.0,63,0.00,,,0.00,0,weatherlink.com 1.10,2013-02-28 13:29:00,
2013-02-28 06:44:00,7.7,-4.0,30.41,East,82,0.0,1.0,60,0.00,,,0.00,9,weatherlink.com 1.10,2013-02-28 13:44:00,
2013-02-28 06:59:00,7.9,-4.0,30.42,East,82,0.0,0.0,59,0.00,,,0.00,12,weatherlink.com 1.10,2013-02-28 13:59:00,
2013-02-28 07:14:00,7.5,-4.0,30.41,East,82,0.0,0.0,59,0.00,,,0.00,16,weatherlink.com 1.10,2013-02-28 14:14:00,
2013-02-28 07:29:00,9.2,-3.0,30.42,ENE,78,0.0,1.0,58,0.00,,,0.00,19,weatherlink.com 1.10,2013-02-28 14:29:00,
2013-02-28 07:44:00,9.8,-3.0,30.42,ENE,61,0.0,1.0,57,0.00,,,0.00,30,weatherlink.com 1.10,2013-02-28 14:44:00,
2013-02-28 07:59:00,10.7,-3.0,30.43,ENE,58,0.0,1.0,55,0.00,,,0.00,40,weatherlink.com 1.10,2013-02-28 14:59:00,
2013-02-28 08:14:00,11.8,-2.0,30.43,ENE,57,0.0,1.0,53,0.00,,,0.00,40,weatherlink.com 1.10,2013-02-28 15:14:00,
2013-02-28 08:29:00,13.0,-3.0,30.44,ENE,57,0.0,1.0,50,0.00,,,0.00,46,weatherlink.com 1.10,2013-02-28 15:29:00,
2013-02-28 08:45:00,13.8,-2.0,30.45,NE,56,0.0,1.0,49,0.00,,,0.00,49,weatherlink.com 1.10,2013-02-28 15:45:00,
2013-02-28 09:00:00,15.4,-3.0,30.45,NE,51,0.0,2.0,45,0.00,,,0.00,65,weatherlink.com 1.10,2013-02-28 16:00:00,
2013-02-28 09:15:00,16.4,-3.0,30.45,NE,51,1.0,2.0,42,0.00,,,0.00,93,weatherlink.com 1.10,2013-02-28 16:15:00,
2013-02-28 09:30:00,17.3,-3.0,30.45,North,360,0.0,1.0,41,0.00,,,0.00,452,weatherlink.com 1.10,2013-02-28 16:30:00,
2013-02-28 09:45:00,18.8,-3.0,30.44,ENE,63,0.0,2.0,38,0.00,,,0.00,580,weatherlink.com 1.10,2013-02-28 16:45:00,
2013-02-28 10:00:00,20.4,-2.0,30.44,ENE,78,0.0,3.0,37,0.00,,,0.00,624,weatherlink.com 1.10,2013-02-28 17:00:00,
2013-02-28 10:15:00,21.7,-2.0,30.44,NW,317,0.0,2.0,36,0.00,,,0.00,661,weatherlink.com 1.10,2013-02-28 17:15:00,
2013-02-28 10:30:00,23.5,-2.0,30.43,West,271,1.0,3.0,33,0.00,,,0.00,698,weatherlink.com 1.10,2013-02-28 17:30:00,
2013-02-28 10:45:00,24.6,-1.0,30.43,WNW,296,2.0,3.0,33,0.00,,,0.00,726,weatherlink.com 1.10,2013-02-28 17:45:00,
2013-02-28 11:00:00,25.3,0.0,30.43,WNW,288,0.0,4.0,34,0.00,,,0.00,752,weatherlink.com 1.10,2013-02-28 18:00:00,
2013-02-28 11:15:00,26.5,1.0,30.43,West,273,0.0,5.0,33,0.00,,,0.00,775,weatherlink.com 1.10,2013-02-28 18:15:00,
2013-02-28 11:30:00,27.3,2.0,30.42,SW,231,2.0,3.0,34,0.00,,,0.00,793,weatherlink.com 1.10,2013-02-28 18:30:00,
2013-02-28 11:45:00,28.7,1.0,30.42,West,270,3.0,4.0,30,0.00,,,0.00,809,weatherlink.com 1.10,2013-02-28 18:45:00,
2013-02-28 12:00:00,28.6,2.0,30.41,West,279,1.0,5.0,32,0.00,,,0.00,819,weatherlink.com 1.10,2013-02-28 19:00:00,
2013-02-28 12:16:00,29.2,3.0,30.40,WNW,294,0.0,5.0,33,0.00,,,0.00,826,weatherlink.com 1.10,2013-02-28 19:16:00,
2013-02-28 12:31:00,30.3,4.0,30.40,West,280,2.0,5.0,32,0.00,,,0.00,830,weatherlink.com 1.10,2013-02-28 19:31:00,
2013-02-28 12:46:00,30.9,4.0,30.39,WNW,284,2.0,3.0,32,0.00,,,0.00,826,weatherlink.com 1.10,2013-02-28 19:46:00,
2013-02-28 13:01:00,31.4,3.0,30.39,SW,234,4.0,6.0,30,0.00,,,0.00,821,weatherlink.com 1.10,2013-02-28 20:01:00,
2013-02-28 13:16:00,32.4,8.0,30.37,West,276,2.0,6.0,36,0.00,,,0.00,807,weatherlink.com 1.10,2013-02-28 20:16:00,
2013-02-28 13:31:00,31.7,2.0,30.37,WSW,255,3.0,6.0,28,0.00,,,0.00,793,weatherlink.com 1.10,2013-02-28 20:31:00,
2013-02-28 13:46:00,32.4,3.0,30.36,SSW,206,1.0,5.0,28,0.00,,,0.00,773,weatherlink.com 1.10,2013-02-28 20:46:00,
2013-02-28 14:01:00,33.9,6.0,30.35,West,262,1.0,6.0,31,0.00,,,0.00,749,weatherlink.com 1.10,2013-02-28 21:01:00,
2013-02-28 14:16:00,33.6,7.0,30.35,West,277,1.0,6.0,33,0.00,,,0.00,719,weatherlink.com 1.10,2013-02-28 21:16:00,
2013-02-28 14:31:00,33.5,1.0,30.34,WSW,255,1.0,6.0,25,0.00,,,0.00,689,weatherlink.com 1.10,2013-02-28 21:31:00,
2013-02-28 14:46:00,34.0,1.0,30.35,WNW,296,1.0,6.0,24,0.00,,,0.00,656,weatherlink.com 1.10,2013-02-28 21:46:00,
2013-02-28 15:01:00,33.1,2.0,30.35,SW,227,5.0,8.0,27,0.00,,,0.00,613,weatherlink.com 1.10,2013-02-28 22:01:00,
2013-02-28 15:16:00,33.3,1.0,30.35,NW,315,5.0,9.0,25,0.00,,,0.00,622,weatherlink.com 1.10,2013-02-28 22:16:00,
2013-02-28 15:31:00,32.4,3.0,30.35,WSW,252,2.0,7.0,28,0.00,,,0.00,573,weatherlink.com 1.10,2013-02-28 22:31:00,
2013-02-28 15:47:00,31.9,4.0,30.35,WNW,290,2.0,10.0,31,0.00,,,0.00,543,weatherlink.com 1.10,2013-02-28 22:47:00,
2013-02-28 16:02:00,32.0,2.0,30.36,WNW,302,3.0,8.0,28,0.00,,,0.00,443,weatherlink.com 1.10,2013-02-28 23:02:00,
2013-02-28 16:17:00,31.0,3.0,30.36,WSW,248,4.0,7.0,30,0.00,,,0.00,364,weatherlink.com 1.10,2013-02-28 23:17:00,
2013-02-28 16:32:00,29.9,3.0,30.36,WNW,288,2.0,9.0,32,0.00,,,0.00,323,weatherlink.com 1.10,2013-02-28 23:32:00,
2013-02-28 16:47:00,29.4,3.0,30.36,WSW,245,5.0,7.0,33,0.00,,,0.00,241,weatherlink.com 1.10,2013-02-28 23:47:00,
2013-02-28 17:02:00,28.8,4.0,30.36,North,360,3.0,7.0,35,0.00,,,0.00,172,weatherlink.com 1.10,2013-03-01 00:02:00,
2013-02-28 17:17:00,28.3,2.0,30.36,North,360,3.0,9.0,33,0.00,,,0.00,42,weatherlink.com 1.10,2013-03-01 00:17:00,
2013-02-28 17:32:00,27.4,3.0,30.36,North,360,4.0,5.0,35,0.00,,,0.00,33,weatherlink.com 1.10,2013-03-01 00:32:00,
2013-02-28 17:47:00,26.4,4.0,30.37,WSW,255,1.0,4.0,38,0.00,,,0.00,18,weatherlink.com 1.10,2013-03-01 00:47:00,
2013-02-28 18:02:00,25.4,4.0,30.37,WNW,286,2.0,7.0,40,0.00,,,0.00,0,weatherlink.com 1.10,2013-03-01 01:02:00,
2013-02-28 18:17:00,25.3,3.0,30.36,WSW,250,0.0,5.0,39,0.00,,,0.00,0,weatherlink.com 1.10,2013-03-01 01:17:00,
2013-02-28 18:32:00,25.2,3.0,30.36,WSW,254,0.0,4.0,39,0.00,,,0.00,0,weatherlink.com 1.10,2013-03-01 01:32:00,
2013-02-28 18:47:00,24.9,3.0,30.34,WSW,253,1.0,4.0,39,0.00,,,0.00,0,weatherlink.com 1.10,2013-03-01 01:47:00,
2013-02-28 19:03:00,24.8,2.0,30.35,WSW,243,0.0,3.0,38,0.00,,,0.00,0,weatherlink.com 1.10,2013-03-01 02:03:00,
2013-02-28 19:18:00,24.5,3.0,30.36,West,281,1.0,3.0,39,0.00,,,0.00,0,weatherlink.com 1.10,2013-03-01 02:18:00,
2013-02-28 19:33:00,23.9,3.0,30.37,North,360,0.0,2.0,40,0.00,,,0.00,0,weatherlink.com 1.10,2013-03-01 02:33:00,
2013-02-28 19:48:00,24.1,2.0,30.36,North,360,0.0,2.0,39,0.00,,,0.00,0,weatherlink.com 1.10,2013-03-01 02:48:00,
2013-02-28 20:03:00,23.8,3.0,30.36,North,360,3.0,3.0,40,0.00,,,0.00,0,weatherlink.com 1.10,2013-03-01 03:03:00,
2013-02-28 20:18:00,23.3,3.0,30.37,WSW,250,1.0,3.0,41,0.00,,,0.00,0,weatherlink.com 1.10,2013-03-01 03:18:00,
2013-02-28 20:33:00,23.3,4.0,30.37,West,279,2.0,5.0,43,0.00,,,0.00,0,weatherlink.com 1.10,2013-03-01 03:33:00,
2013-02-28 20:48:00,23.1,5.0,30.38,WSW,239,0.0,5.0,46,0.00,,,0.00,0,weatherlink.com 1.10,2013-03-01 03:48:00,
2013-02-28 21:03:00,22.6,5.0,30.39,SSW,213,0.0,4.0,47,0.00,,,0.00,0,weatherlink.com 1.10,2013-03-01 04:03:00,
2013-02-28 21:18:00,22.0,5.0,30.39,SW,235,0.0,3.0,48,0.00,,,0.00,0,weatherlink.com 1.10,2013-03-01 04:18:00,
2013-02-28 21:33:00,21.9,5.0,30.40,WSW,253,2.0,3.0,48,0.00,,,0.00,0,weatherlink.com 1.10,2013-03-01 04:33:00,
2013-02-28 21:48:00,21.8,5.0,30.39,WSW,247,0.0,3.0,49,0.00,,,0.00,0,weatherlink.com 1.10,2013-03-01 04:48:00,
2013-02-28 22:03:00,21.2,5.0,30.39,West,264,0.0,2.0,50,0.00,,,0.00,0,weatherlink.com 1.10,2013-03-01 05:03:00,
2013-02-28 22:18:00,20.6,5.0,30.39,West,261,0.0,2.0,52,0.00,,,0.00,0,weatherlink.com 1.10,2013-03-01 05:18:00,
2013-02-28 22:34:00,18.8,5.0,30.39,West,261,0.0,0.0,54,0.00,,,0.00,0,weatherlink.com 1.10,2013-03-01 05:34:00,
2013-02-28 22:49:00,18.4,5.0,30.38,SW,229,1.0,1.0,55,0.00,,,0.00,0,weatherlink.com 1.10,2013-03-01 05:49:00,
2013-02-28 23:04:00,17.9,4.0,30.38,WSW,250,0.0,0.0,55,0.00,,,0.00,0,weatherlink.com 1.10,2013-03-01 06:04:00,
2013-02-28 23:19:00,17.3,5.0,30.39,SSE,159,1.0,2.0,58,0.00,,,0.00,0,weatherlink.com 1.10,2013-03-01 06:19:00,
2013-02-28 23:34:00,17.4,5.0,30.38,SSE,168,2.0,2.0,58,0.00,,,0.00,0,weatherlink.com 1.10,2013-03-01 06:34:00,
2013-02-28 23:49:00,17.6,5.0,30.39,ESE,119,0.0,2.0,58,0.00,,,0.00,0,weatherlink.com 1.10,2013-03-01 06:49:00,